createdAt,value
2019-04-30T00:01:18.714Z,12.10
2019-04-30T00:03:50.533Z,12.73
2019-04-30T00:06:21.855Z,12.77
2019-04-30T00:08:50.718Z,12.47
2019-04-30T00:11:19.825Z,12.33
2019-04-30T00:13:50.222Z,12.00
2019-04-30T00:16:19.172Z,12.97
2019-04-30T00:18:58.132Z,14.40
2019-04-30T00:21:18.931Z,13.37
2019-04-30T00:23:47.871Z,13.30
2019-04-30T00:26:17.307Z,13.90
2019-04-30T00:28:47.716Z,12.67
2019-04-30T00:31:23.490Z,13.50
2019-04-30T00:33:47.498Z,12.87
2019-04-30T00:36:17.405Z,13.93
2019-04-30T00:38:46.498Z,13.67
2019-04-30T00:41:15.633Z,14.27
2019-04-30T00:43:49.298Z,13.70
2019-04-30T00:46:17.283Z,15.40
2019-04-30T00:48:46.045Z,14.87
2019-04-30T00:51:20.997Z,14.67
2019-04-30T00:53:51.207Z,15.13
2019-04-30T00:56:19.847Z,15.03
2019-04-30T00:58:47.474Z,15.73
2019-04-30T01:01:27.561Z,14.33
2019-04-30T01:04:02.509Z,16.13
2019-04-30T01:06:31.633Z,14.80
2019-04-30T01:09:05.442Z,15.13
2019-04-30T01:11:31.218Z,17.47
2019-04-30T01:13:59.989Z,16.67
2019-04-30T01:16:32.904Z,16.47
2019-04-30T01:19:01.181Z,18.37
2019-04-30T01:21:30.336Z,16.23
2019-04-30T01:23:59.776Z,17.90
2019-04-30T01:28:49.449Z,17.30
2019-04-30T01:31:18.774Z,17.60
2019-04-30T01:33:49.155Z,18.63
2019-04-30T01:36:19.305Z,19.43
2019-04-30T01:38:51.018Z,19.67
2019-04-30T01:41:22.047Z,19.40
2019-04-30T01:43:49.739Z,19.53
2019-04-30T01:46:18.937Z,20.37
2019-04-30T01:48:51.953Z,18.43
2019-04-30T01:51:21.794Z,20.67
2019-04-30T01:53:50.378Z,20.30
2019-04-30T01:56:29.043Z,20.07
2019-04-30T01:59:11.507Z,21.93
2019-04-30T02:01:42.174Z,20.20
2019-04-30T02:04:10.936Z,21.53
2019-04-30T02:06:39.748Z,20.27
2019-04-30T02:09:09.132Z,22.73
2019-04-30T02:11:38.861Z,21.37
2019-04-30T02:14:08.996Z,21.97
2019-04-30T02:16:39.523Z,22.87
2019-04-30T02:19:09.194Z,23.30
2019-04-30T02:21:38.627Z,23.97
2019-04-30T02:24:09.000Z,24.63
2019-04-30T02:26:38.482Z,25.10
2019-04-30T02:29:09.059Z,23.27
2019-04-30T02:31:40.604Z,25.43
2019-04-30T02:34:21.785Z,23.63
2019-04-30T02:37:02.718Z,23.03
2019-04-30T02:39:31.502Z,22.37
2019-04-30T02:42:01.483Z,23.07
2019-04-30T02:44:30.714Z,22.33
2019-04-30T02:47:00.912Z,23.97
2019-04-30T02:49:31.497Z,22.53
2019-04-30T02:52:02.693Z,24.63
2019-04-30T02:54:33.167Z,24.90
2019-04-30T02:57:12.013Z,26.50
2019-04-30T03:00:00.022Z,26.53
2019-04-30T03:02:30.113Z,25.40
2019-04-30T03:05:00.219Z,26.07
2019-04-30T03:07:29.624Z,26.93
2019-04-30T03:09:59.818Z,26.00
2019-04-30T03:12:33.188Z,26.80
2019-04-30T03:15:00.462Z,26.33
2019-04-30T03:17:39.482Z,27.90
2019-04-30T03:20:35.633Z,29.00
2019-04-30T03:23:02.438Z,29.20
2019-04-30T03:25:31.426Z,29.47
2019-04-30T03:28:00.579Z,29.67
2019-04-30T03:30:31.844Z,28.87
2019-04-30T03:33:02.675Z,29.03
2019-04-30T03:35:32.220Z,28.20
2019-04-30T03:38:01.734Z,28.87
2019-04-30T03:40:30.763Z,28.40
2019-04-30T03:43:02.988Z,29.33
2019-04-30T03:45:30.343Z,30.43
2019-04-30T03:48:00.144Z,30.43
2019-04-30T03:50:41.745Z,29.77
2019-04-30T03:53:00.565Z,32.07
2019-04-30T03:55:30.028Z,28.50
2019-04-30T03:58:00.185Z,29.03
2019-04-30T04:00:42.539Z,30.63
2019-04-30T04:03:11.386Z,30.90
2019-04-30T04:05:50.682Z,29.60
2019-04-30T04:08:25.735Z,31.47
2019-04-30T04:11:04.959Z,30.63
2019-04-30T04:13:34.011Z,31.57
2019-04-30T04:16:03.034Z,30.30
2019-04-30T04:18:31.830Z,32.47
2019-04-30T04:21:11.692Z,32.07
2019-04-30T04:23:32.912Z,30.87
2019-04-30T04:26:01.881Z,33.40
2019-04-30T04:28:30.673Z,33.60
2019-04-30T04:31:00.114Z,33.53
2019-04-30T04:33:29.729Z,34.67
2019-04-30T04:35:59.792Z,34.00
2019-04-30T04:38:30.354Z,29.93
2019-04-30T04:41:02.669Z,34.73
2019-04-30T04:43:40.205Z,32.53
2019-04-30T04:46:09.454Z,31.60
2019-04-30T04:48:39.453Z,31.77
2019-04-30T04:51:19.836Z,31.10
2019-04-30T04:53:40.183Z,31.73
2019-04-30T04:56:10.127Z,31.60
2019-04-30T04:58:40.135Z,29.17
2019-04-30T05:01:11.909Z,28.47
2019-04-30T05:03:40.101Z,29.57
2019-04-30T05:06:11.466Z,29.77
2019-04-30T05:08:39.709Z,27.47
2019-04-30T05:11:09.553Z,28.67
2019-04-30T05:13:38.952Z,29.03
2019-04-30T05:16:09.197Z,29.17
2019-04-30T05:18:39.109Z,31.70
2019-04-30T05:21:08.815Z,30.00
2019-04-30T05:23:39.649Z,29.60
2019-04-30T05:26:08.468Z,28.03
2019-04-30T05:28:39.352Z,27.93
2019-04-30T05:31:08.749Z,26.93
2019-04-30T05:33:39.031Z,27.43
2019-04-30T05:36:09.306Z,25.20
2019-04-30T05:38:39.185Z,27.03
2019-04-30T05:41:09.349Z,26.73
2019-04-30T05:43:38.702Z,27.00
2019-04-30T05:46:08.367Z,28.77
2019-04-30T05:48:39.719Z,28.57
2019-04-30T05:51:08.982Z,28.37
2019-04-30T05:53:39.391Z,29.57
2019-04-30T05:56:09.463Z,27.83
2019-04-30T05:58:39.756Z,29.13
2019-04-30T06:01:09.719Z,28.77
2019-04-30T06:03:39.134Z,27.63
2019-04-30T06:06:08.816Z,26.67
2019-04-30T06:08:45.811Z,26.13
2019-04-30T06:11:19.231Z,26.30
2019-04-30T06:14:05.959Z,27.43
2019-04-30T06:16:34.914Z,24.63
2019-04-30T06:19:03.766Z,25.67
2019-04-30T06:21:32.626Z,25.67
2019-04-30T06:24:01.630Z,25.57
2019-04-30T06:26:30.925Z,24.17
2019-04-30T06:28:59.859Z,25.17
2019-04-30T06:31:34.690Z,23.27
2019-04-30T06:33:59.872Z,23.30
2019-04-30T06:36:29.029Z,23.67
2019-04-30T06:38:58.994Z,22.70
2019-04-30T06:41:29.559Z,22.80
2019-04-30T06:43:59.252Z,22.40
2019-04-30T06:46:28.684Z,21.43
2019-04-30T06:48:59.480Z,21.03
2019-04-30T06:51:30.623Z,21.47
2019-04-30T06:53:59.725Z,20.73
2019-04-30T06:56:28.961Z,20.27
2019-04-30T06:58:59.047Z,17.20
2019-04-30T07:01:29.033Z,19.33
2019-04-30T07:04:00.781Z,15.90
2019-04-30T07:06:32.296Z,16.57
2019-04-30T07:09:21.108Z,16.00
2019-04-30T07:12:00.938Z,15.60
2019-04-30T07:14:29.847Z,14.30
2019-04-30T07:16:59.434Z,14.13
2019-04-30T07:19:32.923Z,15.27
2019-04-30T07:21:59.396Z,15.83
2019-04-30T07:24:29.615Z,14.10
2019-04-30T07:27:02.583Z,15.00
2019-04-30T07:29:29.601Z,14.10
2019-04-30T07:31:59.286Z,14.97
2019-04-30T07:34:31.688Z,14.23
2019-04-30T07:39:33.373Z,19.83
2019-04-30T07:42:00.094Z,20.73
2019-04-30T07:44:33.326Z,19.57
2019-04-30T07:47:01.992Z,22.20
2019-04-30T07:49:46.475Z,25.10
2019-04-30T07:52:01.732Z,27.10
2019-04-30T07:54:31.623Z,25.97
2019-04-30T07:57:00.585Z,27.50
2019-04-30T07:59:30.166Z,27.13
2019-04-30T08:02:09.866Z,29.30
2019-04-30T08:04:51.233Z,30.57
2019-04-30T08:07:20.588Z,29.53
2019-04-30T08:09:36.849Z,14.67
2019-04-30T08:09:49.604Z,31.03
2019-04-30T08:12:26.277Z,31.93
2019-04-30T08:14:49.574Z,34.23
2019-04-30T08:17:18.911Z,33.40
2019-04-30T08:19:48.994Z,35.67
2019-04-30T08:22:19.601Z,32.73
2019-04-30T08:24:49.157Z,35.17
2019-04-30T08:27:19.708Z,34.10
2019-04-30T08:29:49.923Z,34.97
2019-04-30T08:32:19.405Z,35.20
2019-04-30T08:34:50.113Z,36.33
2019-04-30T08:37:20.213Z,31.33
2019-04-30T08:39:49.814Z,34.90
2019-04-30T08:42:28.993Z,36.27
2019-04-30T08:44:49.470Z,34.73
2019-04-30T08:47:21.170Z,37.37
2019-04-30T08:49:50.165Z,35.67
2019-04-30T08:52:19.960Z,37.07
2019-04-30T08:54:49.607Z,38.00
2019-04-30T08:57:19.417Z,36.93
2019-04-30T08:59:49.467Z,38.13
2019-04-30T09:02:19.761Z,38.00
2019-04-30T09:04:52.833Z,35.67
2019-04-30T09:07:21.739Z,34.40
2019-04-30T09:09:50.508Z,36.40
2019-04-30T09:12:19.842Z,35.10
2019-04-30T09:14:49.156Z,35.00
2019-04-30T09:17:19.916Z,37.03
2019-04-30T09:19:49.173Z,36.97
2019-04-30T09:22:19.462Z,34.77
2019-04-30T09:24:49.772Z,34.53
2019-04-30T09:27:19.562Z,36.77
2019-04-30T09:29:49.162Z,33.40
2019-04-30T09:32:19.352Z,35.27
2019-04-30T09:34:48.812Z,31.47
2019-04-30T09:37:18.681Z,34.37
2019-04-30T09:39:49.437Z,31.93
2019-04-30T09:42:19.626Z,31.60
2019-04-30T09:44:49.367Z,29.13
2019-04-30T09:47:20.073Z,29.00
2019-04-30T09:49:49.558Z,26.57
2019-04-30T09:52:19.443Z,26.93
2019-04-30T09:54:50.021Z,26.63
2019-04-30T09:57:19.628Z,25.50
2019-04-30T09:59:48.764Z,24.00
2019-04-30T10:02:19.075Z,25.07
2019-04-30T10:04:48.765Z,24.53
2019-04-30T10:07:19.524Z,25.83
2019-04-30T10:09:50.674Z,23.43
2019-04-30T10:12:19.724Z,26.93
2019-04-30T10:14:49.495Z,27.67
2019-04-30T10:17:33.624Z,27.70
2019-04-30T10:20:02.549Z,29.40
2019-04-30T10:22:31.357Z,29.80
2019-04-30T10:25:00.666Z,29.13
2019-04-30T10:27:29.719Z,33.00
2019-04-30T10:29:59.371Z,30.93
2019-04-30T10:32:30.002Z,32.87
2019-04-30T10:34:58.973Z,31.00
2019-04-30T10:37:28.816Z,31.87
2019-04-30T10:39:59.751Z,33.37
2019-04-30T10:42:28.983Z,30.70
2019-04-30T10:45:00.050Z,32.23
2019-04-30T10:47:29.370Z,31.10
2019-04-30T10:49:59.380Z,30.87
2019-04-30T10:52:29.284Z,31.47
2019-04-30T10:54:59.557Z,32.00
2019-04-30T10:57:28.584Z,29.53
2019-04-30T10:59:58.679Z,30.93
2019-04-30T11:02:28.744Z,31.80
2019-04-30T11:04:58.824Z,29.87
2019-04-30T11:07:28.826Z,31.70
2019-04-30T11:09:58.861Z,32.93
2019-04-30T11:12:29.198Z,29.87
2019-04-30T11:14:58.197Z,30.40
2019-04-30T11:17:27.664Z,30.17
2019-04-30T11:19:59.183Z,30.63
2019-04-30T11:22:28.333Z,29.90
2019-04-30T11:25:01.981Z,30.07
2019-04-30T11:27:30.333Z,29.67
2019-04-30T11:30:03.225Z,29.90
2019-04-30T11:32:29.454Z,30.97
2019-04-30T11:34:58.655Z,30.03
2019-04-30T11:37:27.529Z,29.43
2019-04-30T11:39:56.463Z,30.00
2019-04-30T11:42:25.509Z,29.97
2019-04-30T11:44:54.363Z,29.70
2019-04-30T11:47:36.212Z,29.90
2019-04-30T11:50:11.537Z,31.30
2019-04-30T11:52:40.402Z,31.10
2019-04-30T11:55:10.206Z,29.80
2019-04-30T11:57:39.846Z,31.83
2019-04-30T12:00:13.832Z,31.80
2019-04-30T12:02:43.275Z,35.13
2019-04-30T12:05:15.411Z,32.90
2019-04-30T12:07:55.941Z,34.90
2019-04-30T12:10:48.105Z,32.67
2019-04-30T12:13:27.183Z,31.80
2019-04-30T12:15:56.396Z,32.33
2019-04-30T12:18:25.337Z,33.50
2019-04-30T12:20:54.542Z,31.23
2019-04-30T12:23:23.700Z,32.53
2019-04-30T12:25:53.024Z,32.10
2019-04-30T12:28:21.999Z,32.60
2019-04-30T12:30:51.102Z,33.00
2019-04-30T12:33:19.913Z,31.97
2019-04-30T12:35:51.165Z,32.63
2019-04-30T12:38:19.464Z,32.33
2019-04-30T12:40:48.480Z,31.40
2019-04-30T12:43:17.422Z,30.17
2019-04-30T12:45:46.414Z,30.07
2019-04-30T12:48:20.852Z,32.38
2019-04-30T12:51:09.133Z,31.77
2019-04-30T12:53:48.296Z,30.33
2019-04-30T12:56:30.043Z,29.92
2019-04-30T12:58:58.844Z,31.12
2019-04-30T13:01:31.776Z,28.85
2019-04-30T13:04:01.397Z,29.40
2019-04-30T13:06:29.886Z,31.10
2019-04-30T13:09:01.289Z,31.17
2019-04-30T13:11:31.360Z,29.00
2019-04-30T13:14:01.326Z,31.00
2019-04-30T13:16:30.354Z,31.87
2019-04-30T13:18:59.421Z,32.90
2019-04-30T13:21:28.579Z,30.80
2019-04-30T13:23:57.730Z,29.95
2019-04-30T13:26:28.498Z,30.48
2019-04-30T13:29:01.879Z,28.20
2019-04-30T13:31:30.756Z,28.17
2019-04-30T13:34:33.869Z,28.62
2019-04-30T13:37:03.089Z,28.98
2019-04-30T13:39:49.481Z,30.43
2019-04-30T13:42:24.052Z,28.75
2019-04-30T13:44:52.944Z,26.43
2019-04-30T13:47:21.761Z,25.75
2019-04-30T13:49:50.578Z,24.45
2019-04-30T13:52:19.549Z,27.22
2019-04-30T13:54:48.656Z,23.92
2019-04-30T13:57:17.475Z,22.55
2019-04-30T13:59:46.379Z,23.67
2019-04-30T14:02:15.558Z,21.37
2019-04-30T14:04:50.688Z,22.83
2019-04-30T14:07:44.773Z,22.03
2019-04-30T14:10:14.204Z,23.05
2019-04-30T14:12:49.166Z,21.40
2019-04-30T14:15:19.191Z,19.87
2019-04-30T14:17:49.427Z,21.82
2019-04-30T14:20:18.388Z,21.20
2019-04-30T14:22:47.233Z,20.93
2019-04-30T14:25:17.639Z,20.03
2019-04-30T14:27:52.208Z,19.33
2019-04-30T14:30:19.194Z,19.13
2019-04-30T14:32:50.568Z,17.50
2019-04-30T14:35:18.991Z,18.10
2019-04-30T14:37:49.607Z,17.00
2019-04-30T14:40:20.227Z,17.62
2019-04-30T14:42:56.007Z,18.00
2019-04-30T14:45:38.526Z,16.97
2019-04-30T14:48:17.876Z,19.62
2019-04-30T14:50:48.991Z,17.15
2019-04-30T14:53:30.512Z,17.50
2019-04-30T14:56:19.642Z,15.50
2019-04-30T14:59:19.736Z,16.10
2019-04-30T15:01:52.648Z,18.15
2019-04-30T15:04:22.088Z,21.52
2019-04-30T15:06:51.190Z,21.02
2019-04-30T15:09:20.542Z,19.52
2019-04-30T15:11:49.638Z,20.23
2019-04-30T15:14:18.773Z,21.33
2019-04-30T15:16:47.712Z,22.13
2019-04-30T15:19:16.786Z,20.55
2019-04-30T15:21:45.804Z,22.42
2019-04-30T15:24:29.294Z,22.32
2019-04-30T15:26:58.308Z,20.30
2019-04-30T15:29:29.079Z,21.77
2019-04-30T15:31:59.297Z,21.97
2019-04-30T15:34:29.322Z,18.90
2019-04-30T15:36:59.144Z,19.35
2019-04-30T15:39:36.440Z,17.90
2019-04-30T15:42:05.620Z,20.50
2019-04-30T15:44:40.042Z,20.20
2019-04-30T15:47:05.941Z,20.02
2019-04-30T15:49:35.094Z,18.57
2019-04-30T15:52:04.489Z,19.82
2019-04-30T15:54:33.920Z,17.30
2019-04-30T15:57:03.144Z,17.70
2019-04-30T15:59:42.174Z,19.25
2019-04-30T16:02:53.599Z,16.90
2019-04-30T16:05:28.495Z,15.38
2019-04-30T16:08:06.661Z,16.50
2019-04-30T16:10:51.453Z,17.77
2019-04-30T16:13:22.178Z,17.82
2019-04-30T16:15:51.048Z,16.62
2019-04-30T16:18:19.989Z,16.70
2019-04-30T16:20:49.851Z,17.12
2019-04-30T16:23:19.208Z,17.42
2019-04-30T16:25:48.416Z,16.87
2019-04-30T16:28:19.468Z,16.35
2019-04-30T16:30:48.122Z,15.40
2019-04-30T16:33:17.264Z,14.65
2019-04-30T16:35:46.097Z,16.07
2019-04-30T16:38:15.077Z,14.20
2019-04-30T16:40:43.884Z,16.20
2019-04-30T16:43:13.058Z,13.58
2019-04-30T16:45:41.923Z,16.55
2019-04-30T16:48:12.083Z,17.20
2019-04-30T16:50:41.073Z,17.90
2019-04-30T16:53:10.625Z,18.95
2019-04-30T16:55:39.875Z,18.07
2019-04-30T16:58:09.592Z,18.32
2019-04-30T17:00:39.360Z,17.92
2019-04-30T17:03:15.177Z,17.65
2019-04-30T17:05:52.604Z,17.55
2019-04-30T17:08:44.938Z,19.10
2019-04-30T17:11:18.520Z,17.35
2019-04-30T17:13:54.656Z,19.55
2019-04-30T17:16:24.092Z,20.20
2019-04-30T17:18:53.031Z,20.07
2019-04-30T17:21:22.015Z,18.37
2019-04-30T17:23:51.258Z,20.93
2019-04-30T17:26:20.432Z,19.93
2019-04-30T17:28:49.904Z,20.67
2019-04-30T17:31:19.099Z,21.20
2019-04-30T17:33:47.901Z,22.53
2019-04-30T17:36:18.677Z,21.87
2019-04-30T17:38:47.417Z,22.27
2019-04-30T17:41:16.296Z,21.53
2019-04-30T17:43:45.120Z,28.67
2019-04-30T17:46:14.223Z,33.10
2019-04-30T17:48:43.324Z,62.47
2019-04-30T17:51:12.485Z,49.00
2019-04-30T17:54:00.359Z,39.67
2019-04-30T17:56:29.322Z,39.87
2019-04-30T17:58:58.128Z,35.97
2019-04-30T18:01:28.264Z,33.30
2019-04-30T18:03:58.804Z,27.80
2019-04-30T18:06:27.916Z,30.43
2019-04-30T18:08:56.810Z,30.73
2019-04-30T18:11:25.703Z,37.77
2019-04-30T18:13:54.543Z,24.97
2019-04-30T18:16:23.604Z,24.27
2019-04-30T18:19:08.881Z,21.57
2019-04-30T18:21:41.642Z,21.93
2019-04-30T18:24:19.532Z,20.57
2019-04-30T18:26:56.526Z,21.17
2019-04-30T18:29:25.329Z,23.13
2019-04-30T18:31:54.230Z,24.13
2019-04-30T18:34:23.289Z,22.00
2019-04-30T18:36:52.105Z,21.77
2019-04-30T18:39:21.398Z,21.80
2019-04-30T18:41:50.255Z,20.33
2019-04-30T18:44:19.641Z,22.70
2019-04-30T18:46:49.136Z,31.40
2019-04-30T18:49:18.769Z,25.33
2019-04-30T18:51:49.251Z,22.27
2019-04-30T18:54:20.906Z,23.83
2019-04-30T18:56:49.124Z,34.10
2019-04-30T18:59:19.611Z,54.30
2019-04-30T19:01:48.817Z,34.73
2019-04-30T19:04:18.909Z,24.60
2019-04-30T19:06:48.254Z,23.50
2019-04-30T19:09:40.148Z,23.97
2019-04-30T19:12:23.545Z,24.87
2019-04-30T19:15:14.991Z,25.67
2019-04-30T19:18:18.582Z,26.67
2019-04-30T19:20:50.363Z,26.17
2019-04-30T19:23:19.203Z,36.57
2019-04-30T19:25:48.634Z,34.00
2019-04-30T19:28:18.878Z,32.23
2019-04-30T19:30:55.844Z,30.43
2019-04-30T19:33:18.397Z,26.47
2019-04-30T19:35:50.385Z,40.93
2019-04-30T19:38:18.102Z,41.77
2019-04-30T19:40:46.977Z,37.70
2019-04-30T19:43:15.861Z,30.07
2019-04-30T19:45:44.957Z,26.40
2019-04-30T19:48:16.085Z,27.23
2019-04-30T19:50:44.887Z,23.83
2019-04-30T19:53:14.045Z,25.47
2019-04-30T19:55:42.928Z,24.63
2019-04-30T19:58:25.073Z,26.50
2019-04-30T20:00:42.452Z,25.97
2019-04-30T20:03:11.439Z,28.37
2019-04-30T20:05:40.371Z,26.23
2019-04-30T20:08:11.091Z,26.77
2019-04-30T20:10:40.166Z,26.83
2019-04-30T20:13:10.767Z,26.23
2019-04-30T20:15:39.913Z,31.63
2019-04-30T20:18:09.089Z,30.43
2019-04-30T20:20:39.871Z,31.57
2019-04-30T20:23:08.820Z,28.43
2019-04-30T20:25:37.733Z,29.60
2019-04-30T20:28:06.768Z,30.43
2019-04-30T20:30:35.747Z,28.73
2019-04-30T20:33:04.894Z,29.83
2019-04-30T20:35:33.973Z,29.03
2019-04-30T20:38:20.832Z,28.90
2019-04-30T20:40:59.679Z,29.97
2019-04-30T20:43:21.757Z,28.80
2019-04-30T20:45:50.702Z,30.20
2019-04-30T20:48:19.810Z,27.47
2019-04-30T20:50:48.772Z,29.20
2019-04-30T20:53:19.671Z,32.60
2019-04-30T20:55:49.523Z,31.17
2019-04-30T20:58:18.950Z,32.73
2019-04-30T21:01:00.510Z,35.27
2019-04-30T21:03:19.689Z,32.67
2019-04-30T21:05:48.643Z,31.60
2019-04-30T21:08:17.764Z,41.13
2019-04-30T21:10:46.568Z,46.73
2019-04-30T21:13:15.498Z,42.10
2019-04-30T21:15:45.269Z,34.30
2019-04-30T21:18:14.153Z,34.23
2019-04-30T21:20:44.385Z,30.77
2019-04-30T21:23:13.507Z,30.33
2019-04-30T21:25:42.479Z,30.57
2019-04-30T21:28:11.698Z,31.93
2019-04-30T21:30:40.657Z,32.30
2019-04-30T21:33:28.631Z,32.37
2019-04-30T21:36:10.137Z,31.17
2019-04-30T21:38:39.208Z,30.90
2019-04-30T21:41:09.957Z,32.60
2019-04-30T21:43:38.667Z,32.63
2019-04-30T21:46:09.386Z,37.00
2019-04-30T21:48:38.850Z,35.43
2019-04-30T21:51:09.435Z,32.63
2019-04-30T21:53:39.594Z,33.93
2019-04-30T21:56:08.783Z,31.40
2019-04-30T21:58:39.249Z,37.97
2019-04-30T22:01:27.012Z,42.37
2019-04-30T22:03:56.241Z,45.67
2019-04-30T22:06:25.144Z,42.47
2019-04-30T22:08:54.564Z,42.57
2019-04-30T22:11:23.601Z,45.40
2019-04-30T22:13:52.402Z,52.00
2019-04-30T22:16:21.553Z,52.57
2019-04-30T22:18:50.616Z,54.50
2019-04-30T22:21:19.505Z,43.37
2019-04-30T22:23:48.501Z,37.50
2019-04-30T22:26:17.305Z,32.97
2019-04-30T22:28:46.174Z,31.40
2019-04-30T22:31:15.457Z,29.67
2019-04-30T22:33:44.338Z,32.50
2019-04-30T22:36:36.486Z,28.63
2019-04-30T22:39:14.413Z,26.93
2019-04-30T22:41:43.276Z,25.23
2019-04-30T22:44:12.182Z,22.30
2019-04-30T22:46:40.964Z,21.57
2019-04-30T22:49:09.865Z,20.07
2019-04-30T22:51:38.953Z,21.33
2019-04-30T22:54:08.063Z,20.97
2019-04-30T22:56:36.848Z,20.43
2019-04-30T22:59:05.954Z,19.23
2019-04-30T23:01:52.822Z,20.43
2019-04-30T23:04:36.502Z,22.30
2019-04-30T23:07:05.612Z,21.83
2019-04-30T23:09:35.084Z,19.57
2019-04-30T23:12:04.656Z,18.80
2019-04-30T23:14:33.470Z,17.47
2019-04-30T23:17:02.550Z,17.03
2019-04-30T23:19:31.383Z,17.30
2019-04-30T23:22:00.296Z,18.07
2019-04-30T23:24:29.073Z,20.83
2019-04-30T23:26:57.958Z,24.53
2019-04-30T23:29:26.815Z,29.73
2019-04-30T23:31:55.598Z,29.60
2019-04-30T23:34:24.394Z,28.53
2019-04-30T23:36:53.373Z,24.10
2019-04-30T23:39:22.565Z,22.57
2019-04-30T23:41:51.351Z,20.20
2019-04-30T23:44:20.434Z,22.10
2019-04-30T23:46:49.245Z,21.37
2019-04-30T23:49:18.032Z,20.43
2019-04-30T23:51:46.927Z,21.47
2019-04-30T23:54:15.775Z,20.23
2019-04-30T23:56:44.600Z,19.07
2019-04-30T23:59:13.644Z,19.03
